createdAt,value
2018-10-18T00:00:14.188Z,16.47
2018-10-18T00:04:16.475Z,17.30
2018-10-18T00:08:18.922Z,17.67
2018-10-18T00:12:21.260Z,17.87
2018-10-18T00:16:24.383Z,19.27
2018-10-18T00:20:26.768Z,19.77
2018-10-18T00:24:29.163Z,17.00
2018-10-18T00:28:31.519Z,19.13
2018-10-18T00:32:33.831Z,17.27
2018-10-18T00:36:36.145Z,18.70
2018-10-18T00:40:38.507Z,18.80
2018-10-18T00:44:40.841Z,18.13
2018-10-18T00:48:43.183Z,17.43
2018-10-18T00:52:45.525Z,17.20
2018-10-18T00:56:47.824Z,20.07
2018-10-18T01:00:50.378Z,19.43
2018-10-18T01:04:52.689Z,19.77
2018-10-18T01:08:54.998Z,19.07
2018-10-18T01:12:57.333Z,16.37
2018-10-18T01:17:02.788Z,17.23
2018-10-18T01:21:05.206Z,16.93
2018-10-18T01:25:07.614Z,17.50
2018-10-18T01:29:10.022Z,18.53
2018-10-18T01:33:12.389Z,19.53
2018-10-18T01:37:14.716Z,19.67
2018-10-18T01:41:17.118Z,16.93
2018-10-18T01:45:19.522Z,17.50
2018-10-18T01:49:21.829Z,16.70
2018-10-18T01:53:24.572Z,16.67
2018-10-18T01:57:26.898Z,17.07
2018-10-18T02:01:29.842Z,17.20
2018-10-18T02:05:32.193Z,19.00
2018-10-18T02:09:34.517Z,18.17
2018-10-18T02:13:37.054Z,18.07
2018-10-18T02:17:39.983Z,19.07
2018-10-18T02:21:42.354Z,20.63
2018-10-18T02:25:44.712Z,19.07
2018-10-18T02:29:47.082Z,19.43
2018-10-18T02:33:49.482Z,17.00
2018-10-18T02:37:51.869Z,17.33
2018-10-18T02:41:54.186Z,17.50
2018-10-18T02:45:56.632Z,17.57
2018-10-18T02:49:59.040Z,20.17
2018-10-18T02:54:01.388Z,19.80
2018-10-18T02:58:03.728Z,19.87
2018-10-18T03:02:06.882Z,21.87
2018-10-18T03:06:09.178Z,20.40
2018-10-18T03:10:11.423Z,19.87
2018-10-18T03:14:13.849Z,18.73
2018-10-18T03:18:16.266Z,17.90
2018-10-18T03:22:18.587Z,17.80
2018-10-18T03:26:20.886Z,20.70
2018-10-18T03:30:23.312Z,21.47
2018-10-18T03:34:25.517Z,22.07
2018-10-18T03:38:28.505Z,20.03
2018-10-18T03:42:31.001Z,18.50
2018-10-18T03:46:33.516Z,16.13
2018-10-18T03:50:35.886Z,16.80
2018-10-18T03:54:38.218Z,16.53
2018-10-18T03:58:40.513Z,16.87
2018-10-18T04:02:42.857Z,18.87
2018-10-18T04:06:45.153Z,19.40
2018-10-18T04:10:47.461Z,18.30
2018-10-18T04:14:49.759Z,17.70
2018-10-18T04:18:52.067Z,17.00
2018-10-18T04:22:54.346Z,17.40
2018-10-18T04:26:57.013Z,16.53
2018-10-18T04:31:00.187Z,16.50
2018-10-18T04:35:02.601Z,18.57
2018-10-18T04:39:07.162Z,18.90
2018-10-18T04:43:09.508Z,16.70
2018-10-18T04:47:11.946Z,19.13
2018-10-18T04:51:14.244Z,22.47
2018-10-18T04:55:16.607Z,18.40
2018-10-18T04:59:18.876Z,20.03
2018-10-18T05:03:21.151Z,20.30
2018-10-18T05:07:23.518Z,20.47
2018-10-18T05:11:25.912Z,19.90
2018-10-18T05:15:28.192Z,18.90
2018-10-18T05:19:30.496Z,22.50
2018-10-18T05:23:32.806Z,21.13
2018-10-18T05:27:35.158Z,22.17
2018-10-18T05:31:37.493Z,21.93
2018-10-18T05:35:39.885Z,22.93
2018-10-18T05:39:42.186Z,24.53
2018-10-18T05:43:44.566Z,25.17
2018-10-18T05:47:46.873Z,30.70
2018-10-18T05:51:49.216Z,31.93
2018-10-18T05:55:51.472Z,29.53
2018-10-18T05:59:53.767Z,30.63
2018-10-18T06:03:56.056Z,30.70
2018-10-18T06:07:58.396Z,28.57
2018-10-18T06:12:00.728Z,29.70
2018-10-18T06:16:03.026Z,24.70
2018-10-18T06:20:05.708Z,25.07
2018-10-18T06:24:08.012Z,26.40
2018-10-18T06:28:10.352Z,25.63
2018-10-18T06:32:12.663Z,26.23
2018-10-18T06:36:15.067Z,32.27
2018-10-18T06:40:17.936Z,26.20
2018-10-18T06:44:20.211Z,28.90
2018-10-18T06:48:22.599Z,27.17
2018-10-18T06:52:24.930Z,29.30
2018-10-18T06:56:27.322Z,29.70
2018-10-18T07:00:29.681Z,28.10
2018-10-18T07:04:31.955Z,28.53
2018-10-18T07:08:34.286Z,29.17
2018-10-18T07:12:37.379Z,30.47
2018-10-18T07:16:39.681Z,32.33
2018-10-18T07:20:42.100Z,35.30
2018-10-18T07:24:44.537Z,42.73
2018-10-18T07:28:47.177Z,46.70
2018-10-18T07:32:49.410Z,49.33
2018-10-18T07:36:51.749Z,60.10
2018-10-18T07:40:54.096Z,58.83
2018-10-18T07:44:56.560Z,63.77
2018-10-18T07:48:58.859Z,70.77
2018-10-18T07:53:01.241Z,69.20
2018-10-18T07:57:03.675Z,72.60
2018-10-18T08:01:05.984Z,70.67
2018-10-18T08:05:08.720Z,73.30
2018-10-18T08:09:12.741Z,77.23
2018-10-18T08:13:15.082Z,73.83
2018-10-18T08:17:17.538Z,78.00
2018-10-18T08:21:19.862Z,74.80
2018-10-18T08:25:22.176Z,64.47
2018-10-18T08:29:24.520Z,64.77
2018-10-18T08:33:26.896Z,67.90
2018-10-18T08:37:29.252Z,64.20
2018-10-18T08:41:31.528Z,55.83
2018-10-18T08:45:33.844Z,63.67
2018-10-18T08:49:36.305Z,59.70
2018-10-18T08:53:38.549Z,56.03
2018-10-18T08:57:41.356Z,57.23
2018-10-18T09:01:43.660Z,57.47
2018-10-18T09:05:46.061Z,56.93
2018-10-18T09:09:48.370Z,55.97
2018-10-18T09:13:50.683Z,51.80
2018-10-18T09:17:53.016Z,52.73
2018-10-18T09:21:55.540Z,54.57
2018-10-18T09:25:57.838Z,52.53
2018-10-18T09:30:00.226Z,52.53
2018-10-18T09:34:02.575Z,52.17
2018-10-18T09:38:05.625Z,55.30
2018-10-18T09:42:07.950Z,50.90
2018-10-18T09:46:10.319Z,52.47
2018-10-18T09:50:12.691Z,53.37
2018-10-18T09:54:15.034Z,53.43
2018-10-18T09:58:17.338Z,51.03
2018-10-18T10:02:25.310Z,50.13
2018-10-18T10:06:27.663Z,47.73
2018-10-18T10:10:29.978Z,51.70
2018-10-18T10:14:32.342Z,47.20
2018-10-18T10:18:34.768Z,46.27
2018-10-18T10:22:37.215Z,46.33
2018-10-18T10:26:39.585Z,45.30
2018-10-18T10:30:42.034Z,43.47
2018-10-18T10:34:44.393Z,43.50
2018-10-18T10:38:46.964Z,42.83
2018-10-18T10:42:49.383Z,44.33
2018-10-18T10:46:54.175Z,44.13
2018-10-18T10:50:56.691Z,43.03
2018-10-18T10:55:00.558Z,40.73
2018-10-18T10:59:10.588Z,44.13
2018-10-18T11:03:13.189Z,40.03
2018-10-18T11:07:15.864Z,37.90
2018-10-18T11:11:18.598Z,42.43
2018-10-18T11:15:21.029Z,40.87
2018-10-18T11:19:23.319Z,40.00
2018-10-18T11:23:25.670Z,38.77
2018-10-18T11:27:28.227Z,40.40
2018-10-18T11:31:30.849Z,41.00
2018-10-18T11:35:33.219Z,35.47
2018-10-18T11:39:35.580Z,40.40
2018-10-18T11:43:37.963Z,37.17
2018-10-18T11:47:40.361Z,38.40
2018-10-18T11:51:42.894Z,39.30
2018-10-18T11:55:45.187Z,39.80
2018-10-18T11:59:47.573Z,38.37
2018-10-18T12:03:50.123Z,38.40
2018-10-18T12:07:53.196Z,40.13
2018-10-18T12:11:55.541Z,37.77
2018-10-18T12:15:58.763Z,40.17
2018-10-18T12:20:01.282Z,40.77
2018-10-18T12:24:03.707Z,38.60
2018-10-18T12:28:06.184Z,40.17
2018-10-18T12:32:08.654Z,43.67
2018-10-18T12:37:40.483Z,44.03
2018-10-18T12:41:42.981Z,44.57
2018-10-18T12:45:45.262Z,42.07
2018-10-18T12:49:47.631Z,44.33
2018-10-18T12:53:49.997Z,44.17
2018-10-18T12:57:52.395Z,41.93
2018-10-18T13:01:54.883Z,42.83
2018-10-18T13:05:57.262Z,42.03
2018-10-18T13:09:59.599Z,43.13
2018-10-18T13:14:02.091Z,42.83
2018-10-18T13:18:04.867Z,43.07
2018-10-18T13:22:07.168Z,42.70
2018-10-18T13:26:09.498Z,40.40
2018-10-18T13:30:12.872Z,39.77
2018-10-18T13:34:15.153Z,44.23
2018-10-18T13:38:17.562Z,42.37
2018-10-18T13:42:19.979Z,38.73
2018-10-18T13:46:22.442Z,38.63
2018-10-18T13:50:24.812Z,43.43
2018-10-18T13:54:28.372Z,41.03
2018-10-18T13:58:30.715Z,41.97
2018-10-18T14:02:33.096Z,38.00
2018-10-18T14:06:35.393Z,40.70
2018-10-18T14:10:37.764Z,37.23
2018-10-18T14:14:40.093Z,43.10
2018-10-18T14:18:42.653Z,39.50
2018-10-18T14:22:45.079Z,41.10
2018-10-18T14:26:48.306Z,42.37
2018-10-18T14:30:50.753Z,41.20
2018-10-18T14:34:53.202Z,38.83
2018-10-18T14:38:55.645Z,40.47
2018-10-18T14:42:58.478Z,40.80
2018-10-18T14:47:00.903Z,39.37
2018-10-18T14:51:03.157Z,36.87
2018-10-18T14:55:05.945Z,37.67
2018-10-18T14:59:08.773Z,37.70
2018-10-18T15:03:11.127Z,37.87
2018-10-18T15:07:13.489Z,37.03
2018-10-18T15:11:15.901Z,35.37
2018-10-18T15:15:18.192Z,36.47
2018-10-18T15:19:20.569Z,36.70
2018-10-18T15:23:23.086Z,34.83
2018-10-18T15:27:25.969Z,33.67
2018-10-18T15:31:28.211Z,33.20
2018-10-18T15:35:30.561Z,32.97
2018-10-18T15:39:33.066Z,30.73
2018-10-18T15:43:35.331Z,31.70
2018-10-18T15:47:37.921Z,30.30
2018-10-18T15:51:40.298Z,30.80
2018-10-18T15:55:42.688Z,30.60
2018-10-18T15:59:45.068Z,31.50
2018-10-18T16:03:47.450Z,31.17
2018-10-18T16:07:49.827Z,31.20
2018-10-18T16:11:52.208Z,28.90
2018-10-18T16:15:54.561Z,29.33
2018-10-18T16:19:56.919Z,28.60
2018-10-18T16:23:59.308Z,28.70
2018-10-18T16:28:01.821Z,27.20
2018-10-18T16:32:04.400Z,28.47
2018-10-18T16:36:06.753Z,30.00
2018-10-18T16:40:09.148Z,27.47
2018-10-18T16:44:12.625Z,29.20
2018-10-18T16:48:15.029Z,31.60
2018-10-18T16:52:17.465Z,31.70
2018-10-18T16:56:21.618Z,31.50
2018-10-18T17:00:24.081Z,30.13
2018-10-18T17:04:26.683Z,27.50
2018-10-18T17:08:28.931Z,29.10
2018-10-18T17:12:31.252Z,29.60
2018-10-18T17:16:33.950Z,30.13
2018-10-18T17:20:36.458Z,31.57
2018-10-18T17:24:38.794Z,33.13
2018-10-18T17:28:41.223Z,36.10
2018-10-18T17:32:43.638Z,32.70
2018-10-18T17:36:46.821Z,35.40
2018-10-18T17:40:49.328Z,34.23
2018-10-18T17:44:51.572Z,34.03
2018-10-18T17:48:53.947Z,31.00
2018-10-18T17:52:56.433Z,34.80
2018-10-18T17:56:58.821Z,37.93
2018-10-18T18:01:01.297Z,39.97
2018-10-18T18:05:04.479Z,56.10
2018-10-18T18:09:07.893Z,78.80
2018-10-18T18:13:10.287Z,53.67
2018-10-18T18:17:12.656Z,49.73
2018-10-18T18:21:15.028Z,43.13
2018-10-18T18:25:17.474Z,41.03
2018-10-18T18:29:19.856Z,39.27
2018-10-18T18:33:22.265Z,35.67
2018-10-18T18:37:24.690Z,37.70
2018-10-18T18:41:27.136Z,34.03
2018-10-18T18:45:35.730Z,34.23
2018-10-18T18:49:38.236Z,32.20
2018-10-18T18:53:40.591Z,34.80
2018-10-18T18:57:43.139Z,32.70
2018-10-18T19:01:45.570Z,34.38
2018-10-18T19:05:48.090Z,39.40
2018-10-18T19:09:50.612Z,37.50
2018-10-18T19:13:53.099Z,39.93
2018-10-18T19:17:56.193Z,37.67
2018-10-18T19:21:58.701Z,32.87
2018-10-18T19:26:01.160Z,34.43
2018-10-18T19:30:03.623Z,35.23
2018-10-18T19:34:06.052Z,39.23
2018-10-18T19:38:08.442Z,38.87
2018-10-18T19:42:10.752Z,41.87
2018-10-18T19:46:13.343Z,42.53
2018-10-18T19:50:16.036Z,41.97
2018-10-18T19:54:18.583Z,42.13
2018-10-18T19:58:21.140Z,41.17
2018-10-18T20:02:23.911Z,46.58
2018-10-18T20:06:26.365Z,39.47
2018-10-18T20:10:28.946Z,38.77
2018-10-18T20:14:31.468Z,37.10
2018-10-18T20:18:33.959Z,33.00
2018-10-18T20:22:36.310Z,36.70
2018-10-18T20:26:39.026Z,25.20
2018-10-18T20:30:41.472Z,27.97
2018-10-18T20:34:43.986Z,31.07
2018-10-18T20:38:46.374Z,34.93
2018-10-18T20:42:48.743Z,34.70
2018-10-18T20:46:51.441Z,35.77
2018-10-18T20:50:54.049Z,35.83
2018-10-18T20:54:56.417Z,36.30
2018-10-18T20:58:58.919Z,33.53
2018-10-18T21:03:01.429Z,34.13
2018-10-18T21:07:04.050Z,36.57
2018-10-18T21:11:06.486Z,32.70
2018-10-18T21:15:09.014Z,29.37
2018-10-18T21:19:11.434Z,30.13
2018-10-18T21:23:14.053Z,35.07
2018-10-18T21:27:16.394Z,33.00
2018-10-18T21:31:18.805Z,32.53
2018-10-18T21:35:21.215Z,35.03
2018-10-18T21:39:34.817Z,44.20
2018-10-18T21:43:37.169Z,36.27
2018-10-18T21:47:39.764Z,30.33
2018-10-18T21:51:42.180Z,31.40
2018-10-18T21:55:44.536Z,29.87
2018-10-18T21:59:46.933Z,30.03
2018-10-18T22:03:49.339Z,29.97
2018-10-18T22:07:53.820Z,30.77
2018-10-18T22:11:56.761Z,31.00
2018-10-18T22:15:59.527Z,34.13
2018-10-18T22:20:01.933Z,32.50
2018-10-18T22:24:04.688Z,32.97
2018-10-18T22:28:09.155Z,31.33
2018-10-18T22:32:11.552Z,30.00
2018-10-18T22:36:13.921Z,30.03
2018-10-18T22:40:16.316Z,31.77
2018-10-18T22:44:18.684Z,29.33
2018-10-18T22:48:21.039Z,28.20
2018-10-18T22:52:23.454Z,24.90
2018-10-18T22:56:25.812Z,25.60
2018-10-18T23:00:28.190Z,23.10
2018-10-18T23:04:30.612Z,24.83
2018-10-18T23:08:32.952Z,24.10
2018-10-18T23:12:35.299Z,22.60
2018-10-18T23:16:38.223Z,24.00
2018-10-18T23:20:40.920Z,23.13
2018-10-18T23:24:43.423Z,22.33
2018-10-18T23:28:45.917Z,18.97
2018-10-18T23:32:48.338Z,18.37
2018-10-18T23:36:50.748Z,19.97
2018-10-18T23:40:53.175Z,18.60
2018-10-18T23:44:55.618Z,18.33
2018-10-18T23:48:58.020Z,16.23
2018-10-18T23:53:00.409Z,16.70
2018-10-18T23:57:02.795Z,19.43
